createdAt,value
2022-11-12T03:59:25.769Z,1025.68
2022-11-12T04:00:25.149Z,1025.64
2022-11-12T04:01:24.097Z,1025.59
2022-11-12T04:02:23.992Z,1025.58
2022-11-12T04:03:25.631Z,1025.56
2022-11-12T04:04:23.982Z,1025.54
2022-11-12T04:05:25.636Z,1025.55
2022-11-12T04:06:25.612Z,1025.56
2022-11-12T04:07:25.638Z,1025.55
2022-11-12T04:08:26.062Z,1025.52
2022-11-12T04:09:25.617Z,1025.52
2022-11-12T04:10:25.640Z,1025.50
2022-11-12T04:11:25.654Z,1025.49
2022-11-12T04:12:25.641Z,1025.51
2022-11-12T04:13:25.632Z,1025.50
2022-11-12T04:14:25.652Z,1025.45
2022-11-12T04:15:25.762Z,1025.52
2022-11-12T04:16:23.907Z,1025.52
2022-11-12T04:17:25.626Z,1025.54
2022-11-12T04:18:25.575Z,1025.49
2022-11-12T04:19:23.894Z,1025.55
2022-11-12T04:20:23.914Z,1025.55
2022-11-12T04:21:25.637Z,1025.55
2022-11-12T04:22:23.885Z,1025.57
2022-11-12T04:23:25.149Z,1025.55
2022-11-12T04:24:25.632Z,1025.54
2022-11-12T04:25:25.644Z,1025.57
2022-11-12T04:26:25.633Z,1025.55
2022-11-12T04:27:25.647Z,1025.55
2022-11-12T04:28:26.032Z,1025.54
2022-11-12T04:29:23.877Z,1025.57
2022-11-12T04:30:25.646Z,1025.56
2022-11-12T04:31:25.771Z,1025.55
2022-11-12T04:32:24.842Z,1025.57
2022-11-12T04:33:25.650Z,1025.56
2022-11-12T04:34:25.671Z,1025.56
2022-11-12T04:35:25.652Z,1025.54
2022-11-12T04:36:25.666Z,1025.55
2022-11-12T04:37:25.662Z,1025.52
2022-11-12T04:38:26.003Z,1025.54
2022-11-12T04:39:25.643Z,1025.55
2022-11-12T04:40:25.642Z,1025.50
2022-11-12T04:41:25.711Z,1025.50
2022-11-12T04:42:25.655Z,1025.53
2022-11-12T04:43:25.187Z,1025.51
2022-11-12T04:44:24.803Z,1025.49
2022-11-12T04:45:23.845Z,1025.53
2022-11-12T04:46:25.677Z,1025.51
2022-11-12T04:47:23.894Z,1025.50
2022-11-12T04:48:24.137Z,1025.48
2022-11-12T04:49:23.790Z,1025.48
2022-11-12T04:50:23.778Z,1025.50
2022-11-12T04:51:25.162Z,1025.49
2022-11-12T04:52:23.804Z,1025.47
2022-11-12T04:53:23.768Z,1025.44
2022-11-12T04:54:23.775Z,1025.45
2022-11-12T04:55:25.652Z,1025.42
2022-11-12T04:56:25.664Z,1025.43
2022-11-12T04:57:25.671Z,1025.43
2022-11-12T04:58:26.196Z,1025.45
2022-11-12T04:59:25.656Z,1025.46
2022-11-12T05:00:25.673Z,1025.43
2022-11-12T05:01:25.706Z,1025.48
2022-11-12T05:02:25.780Z,1025.47
2022-11-12T05:03:25.665Z,1025.46
2022-11-12T05:04:25.676Z,1025.47
2022-11-12T05:05:28.552Z,1025.44
2022-11-12T05:06:25.695Z,1025.44
2022-11-12T05:07:25.662Z,1025.41
2022-11-12T05:08:26.072Z,1025.46
2022-11-12T05:09:25.184Z,1025.42
2022-11-12T05:10:23.709Z,1025.43
2022-11-12T05:11:25.686Z,1025.45
2022-11-12T05:12:23.695Z,1025.47
2022-11-12T05:13:25.191Z,1025.46
2022-11-12T05:14:23.687Z,1025.47
2022-11-12T05:15:23.676Z,1025.44
2022-11-12T05:16:23.681Z,1025.47
2022-11-12T05:17:23.686Z,1025.45
2022-11-12T05:18:25.179Z,1025.45
2022-11-12T05:19:23.667Z,1025.45
2022-11-12T05:20:23.682Z,1025.41
2022-11-12T05:21:23.656Z,1025.47
2022-11-12T05:22:42.695Z,1025.47
2022-11-12T05:23:24.692Z,1025.45
2022-11-12T05:24:41.096Z,1025.51
2022-11-12T05:25:23.653Z,1025.49
2022-11-12T05:26:24.643Z,1025.46
2022-11-12T05:27:23.648Z,1025.46
2022-11-12T05:28:25.695Z,1025.46
2022-11-12T05:29:23.668Z,1025.49
2022-11-12T05:30:25.237Z,1025.47
2022-11-12T05:31:23.617Z,1025.41
2022-11-12T05:32:25.225Z,1025.46
2022-11-12T05:33:24.707Z,1025.37
2022-11-12T05:34:25.300Z,1025.34
2022-11-12T05:35:23.642Z,1025.34
2022-11-12T05:36:25.218Z,1025.30
2022-11-12T05:37:25.185Z,1025.30
2022-11-12T05:38:25.773Z,1025.35
2022-11-12T05:39:25.248Z,1025.40
2022-11-12T05:40:25.207Z,1025.40
2022-11-12T05:41:25.243Z,1025.46
2022-11-12T05:42:25.228Z,1025.48
2022-11-12T05:43:25.225Z,1025.50
2022-11-12T05:44:25.254Z,1025.50
2022-11-12T05:45:25.214Z,1025.50
2022-11-12T05:46:25.195Z,1025.40
2022-11-12T05:47:25.221Z,1025.42
2022-11-12T05:48:25.346Z,1025.38
2022-11-12T05:49:24.555Z,1025.38
2022-11-12T05:50:28.258Z,1025.40
2022-11-12T05:51:24.739Z,1025.42
2022-11-12T05:52:23.559Z,1025.43
2022-11-12T05:53:25.254Z,1025.48
2022-11-12T05:54:25.228Z,1025.45
2022-11-12T05:55:24.531Z,1025.49
2022-11-12T05:56:25.720Z,1025.46
2022-11-12T05:57:23.522Z,1025.49
2022-11-12T05:58:25.400Z,1025.49
2022-11-12T05:59:23.517Z,1025.46
2022-11-12T06:00:25.205Z,1025.45
2022-11-12T06:01:25.209Z,1025.45
2022-11-12T06:02:25.283Z,1025.42
2022-11-12T06:03:25.247Z,1025.41
2022-11-12T06:04:25.209Z,1025.42
2022-11-12T06:05:25.213Z,1025.39
2022-11-12T06:06:23.591Z,1025.40
2022-11-12T06:07:25.264Z,1025.47
2022-11-12T06:08:25.720Z,1025.48
2022-11-12T06:09:25.231Z,1025.51
2022-11-12T06:10:25.213Z,1025.52
2022-11-12T06:11:24.764Z,1025.52
2022-11-12T06:12:23.501Z,1025.50
2022-11-12T06:13:23.475Z,1025.51
2022-11-12T06:14:23.462Z,1025.57
2022-11-12T06:15:23.453Z,1025.57
2022-11-12T06:16:24.733Z,1025.57
2022-11-12T06:17:25.227Z,1025.58
2022-11-12T06:18:23.527Z,1025.65
2022-11-12T06:19:23.458Z,1025.64
2022-11-12T06:20:23.438Z,1025.64
2022-11-12T06:21:23.441Z,1025.70
2022-11-12T06:22:25.345Z,1025.71
2022-11-12T06:23:23.451Z,1025.69
2022-11-12T06:24:23.436Z,1025.68
2022-11-12T06:25:23.434Z,1025.72
2022-11-12T06:26:23.459Z,1025.67
2022-11-12T06:27:25.250Z,1025.68
2022-11-12T06:28:23.597Z,1025.71
2022-11-12T06:29:25.279Z,1025.71
2022-11-12T06:30:25.942Z,1025.74
2022-11-12T06:31:23.397Z,1025.75
2022-11-12T06:32:25.280Z,1025.81
2022-11-12T06:33:25.237Z,1025.79
2022-11-12T06:34:25.232Z,1025.83
2022-11-12T06:35:25.265Z,1025.82
2022-11-12T06:36:25.240Z,1025.80
2022-11-12T06:37:25.283Z,1025.80
2022-11-12T06:38:25.705Z,1025.78
2022-11-12T06:39:25.300Z,1025.78
2022-11-12T06:40:25.262Z,1025.77
2022-11-12T06:41:25.240Z,1025.81
2022-11-12T06:42:25.257Z,1025.81
2022-11-12T06:43:23.352Z,1025.76
2022-11-12T06:44:24.356Z,1025.79
2022-11-12T06:45:24.354Z,1025.82
2022-11-12T06:46:23.364Z,1025.80
2022-11-12T06:47:23.345Z,1025.84
2022-11-12T06:48:23.397Z,1025.87
2022-11-12T06:49:24.357Z,1025.88
2022-11-12T06:50:23.334Z,1025.89
2022-11-12T06:51:23.338Z,1025.90
2022-11-12T06:52:23.323Z,1025.89
2022-11-12T06:53:23.360Z,1025.86
2022-11-12T06:54:25.381Z,1025.86
2022-11-12T06:55:23.310Z,1025.87
2022-11-12T06:56:25.280Z,1025.87
2022-11-12T06:57:23.310Z,1025.85
2022-11-12T06:58:23.419Z,1025.87
2022-11-12T06:59:25.294Z,1025.86
2022-11-12T07:00:23.303Z,1025.87
2022-11-12T07:01:25.311Z,1025.86
2022-11-12T07:02:25.342Z,1025.82
2022-11-12T07:03:25.287Z,1025.81
2022-11-12T07:04:23.277Z,1025.82
2022-11-12T07:05:25.260Z,1025.78
2022-11-12T07:06:24.772Z,1025.80
2022-11-12T07:07:24.913Z,1025.75
2022-11-12T07:08:23.481Z,1025.79
2022-11-12T07:09:23.265Z,1025.80
2022-11-12T07:10:24.880Z,1025.79
2022-11-12T07:11:24.776Z,1025.81
2022-11-12T07:12:24.779Z,1025.76
2022-11-12T07:13:24.767Z,1025.80
2022-11-12T07:14:24.766Z,1025.83
2022-11-12T07:15:24.817Z,1025.78
2022-11-12T07:16:24.777Z,1025.78
2022-11-12T07:17:24.766Z,1025.76
2022-11-12T07:18:25.119Z,1025.78
2022-11-12T07:19:24.792Z,1025.77
2022-11-12T07:20:24.801Z,1025.74
2022-11-12T07:21:24.788Z,1025.73
2022-11-12T07:22:24.786Z,1025.75
2022-11-12T07:23:24.808Z,1025.74
2022-11-12T07:24:24.799Z,1025.70
2022-11-12T07:25:24.790Z,1025.73
2022-11-12T07:26:24.891Z,1025.75
2022-11-12T07:27:24.789Z,1025.76
2022-11-12T07:28:25.196Z,1025.76
2022-11-12T07:29:42.599Z,1025.77
2022-11-12T07:30:24.780Z,1025.81
2022-11-12T07:31:24.820Z,1025.82
2022-11-12T07:32:24.801Z,1025.90
2022-11-12T07:33:24.782Z,1025.89
2022-11-12T07:34:24.848Z,1025.91
2022-11-12T07:35:24.837Z,1025.90
2022-11-12T07:36:24.834Z,1025.92
2022-11-12T07:37:24.810Z,1025.91
2022-11-12T07:38:25.182Z,1025.90
2022-11-12T07:39:24.800Z,1025.93
2022-11-12T07:40:24.789Z,1025.93
2022-11-12T07:41:24.800Z,1025.97
2022-11-12T07:42:24.893Z,1025.99
2022-11-12T07:43:24.818Z,1025.99
2022-11-12T07:44:24.791Z,1026.01
2022-11-12T07:45:24.805Z,1026.01
2022-11-12T07:46:24.831Z,1025.98
2022-11-12T07:47:24.801Z,1025.97
2022-11-12T07:48:25.224Z,1025.96
2022-11-12T07:49:23.133Z,1025.91
2022-11-12T07:50:23.137Z,1025.88
2022-11-12T07:51:23.104Z,1025.85
2022-11-12T07:52:24.816Z,1025.84
2022-11-12T07:53:24.828Z,1025.85
2022-11-12T07:54:23.092Z,1025.88
2022-11-12T07:55:24.812Z,1025.88
2022-11-12T07:56:23.114Z,1025.88
2022-11-12T07:57:24.846Z,1025.90
2022-11-12T07:58:25.241Z,1025.92
2022-11-12T07:59:23.087Z,1025.98
2022-11-12T08:00:23.075Z,1025.94
2022-11-12T08:01:23.121Z,1025.98
2022-11-12T08:02:24.843Z,1025.96
2022-11-12T08:03:23.068Z,1025.97
2022-11-12T08:04:24.840Z,1026.02
2022-11-12T08:05:24.813Z,1025.98
2022-11-12T08:06:24.817Z,1025.98
2022-11-12T08:07:24.964Z,1026.00
2022-11-12T08:08:23.051Z,1026.02
2022-11-12T08:09:24.829Z,1026.01
2022-11-12T08:10:24.840Z,1026.01
2022-11-12T08:11:24.833Z,1026.03
2022-11-12T08:12:24.828Z,1025.98
2022-11-12T08:13:24.874Z,1025.91
2022-11-12T08:14:25.932Z,1025.94
2022-11-12T08:15:24.823Z,1025.93
2022-11-12T08:16:24.870Z,1025.97
2022-11-12T08:17:24.820Z,1025.95
2022-11-12T08:18:25.225Z,1025.90
2022-11-12T08:19:24.834Z,1025.95
2022-11-12T08:20:24.824Z,1025.94
2022-11-12T08:21:24.838Z,1025.95
2022-11-12T08:22:23.013Z,1025.98
2022-11-12T08:23:24.848Z,1025.99
2022-11-12T08:24:22.992Z,1026.00
2022-11-12T08:25:22.982Z,1026.02
2022-11-12T08:26:22.979Z,1026.02
2022-11-12T08:27:22.978Z,1026.00
2022-11-12T08:28:25.307Z,1026.01
2022-11-12T08:29:22.975Z,1025.99
2022-11-12T08:30:23.107Z,1025.99
2022-11-12T08:31:23.000Z,1025.99
2022-11-12T08:32:22.988Z,1025.96
2022-11-12T08:33:24.844Z,1025.94
2022-11-12T08:34:23.034Z,1025.92
2022-11-12T08:35:24.834Z,1025.89
2022-11-12T08:36:22.949Z,1025.94
2022-11-12T08:37:24.850Z,1025.88
2022-11-12T08:38:22.958Z,1025.90
2022-11-12T08:39:24.852Z,1025.92
2022-11-12T08:40:22.975Z,1025.94
2022-11-12T08:41:24.842Z,1026.00
2022-11-12T08:42:24.887Z,1026.02
2022-11-12T08:43:24.852Z,1026.11
2022-11-12T08:44:24.848Z,1026.13
2022-11-12T08:45:24.844Z,1026.23
2022-11-12T08:46:24.040Z,1026.23
2022-11-12T08:47:24.859Z,1026.27
2022-11-12T08:48:25.204Z,1026.23
2022-11-12T08:49:24.362Z,1026.24
2022-11-12T08:50:22.917Z,1026.24
2022-11-12T08:51:24.859Z,1026.22
2022-11-12T08:52:22.916Z,1026.21
2022-11-12T08:53:22.906Z,1026.18
2022-11-12T08:54:22.902Z,1026.12
2022-11-12T08:55:22.896Z,1026.14
2022-11-12T08:56:22.896Z,1026.16
2022-11-12T08:57:24.878Z,1026.16
2022-11-12T08:58:22.996Z,1026.22
2022-11-12T08:59:22.883Z,1026.27
2022-11-12T09:00:22.879Z,1026.31
2022-11-12T09:01:23.955Z,1026.33
2022-11-12T09:02:22.979Z,1026.34
2022-11-12T09:03:24.877Z,1026.35
2022-11-12T09:04:24.382Z,1026.33
2022-11-12T09:05:22.880Z,1026.32
2022-11-12T09:06:24.396Z,1026.30
2022-11-12T09:07:53.567Z,1026.30
2022-11-12T09:08:24.690Z,1026.26
2022-11-12T09:09:24.380Z,1026.29
2022-11-12T09:10:24.369Z,1026.29
2022-11-12T09:11:24.395Z,1026.32
2022-11-12T09:12:24.379Z,1026.34
2022-11-12T09:13:24.430Z,1026.37
2022-11-12T09:14:24.447Z,1026.33
2022-11-12T09:15:37.605Z,1026.35
2022-11-12T09:16:24.399Z,1026.30
2022-11-12T09:17:24.490Z,1026.34
2022-11-12T09:18:24.745Z,1026.28
2022-11-12T09:19:24.391Z,1026.27
2022-11-12T09:20:24.413Z,1026.23
2022-11-12T09:21:24.384Z,1026.22
2022-11-12T09:22:24.405Z,1026.21
2022-11-12T09:23:24.377Z,1026.25
2022-11-12T09:24:24.394Z,1026.24
2022-11-12T09:25:24.378Z,1026.23
2022-11-12T09:26:24.447Z,1026.23
2022-11-12T09:27:24.408Z,1026.24
2022-11-12T09:28:24.741Z,1026.20
2022-11-12T09:29:24.385Z,1026.19
2022-11-12T09:30:24.427Z,1026.13
2022-11-12T09:31:24.380Z,1026.15
2022-11-12T09:32:22.827Z,1026.12
2022-11-12T09:33:22.924Z,1026.10
2022-11-12T09:34:24.404Z,1026.12
2022-11-12T09:35:22.822Z,1026.08
2022-11-12T09:36:22.823Z,1026.07
2022-11-12T09:37:22.821Z,1026.08
2022-11-12T09:38:24.766Z,1026.13
2022-11-12T09:39:24.414Z,1026.13
2022-11-12T09:40:24.429Z,1026.18
2022-11-12T09:41:24.392Z,1026.14
2022-11-12T09:42:24.431Z,1026.21
2022-11-12T09:43:24.404Z,1026.17
2022-11-12T09:44:24.435Z,1026.17
2022-11-12T09:45:24.409Z,1026.19
2022-11-12T09:46:27.576Z,1026.16
2022-11-12T09:47:22.796Z,1026.21
2022-11-12T09:48:22.804Z,1026.22
2022-11-12T09:49:22.925Z,1026.19
2022-11-12T09:50:24.420Z,1026.21
2022-11-12T09:51:23.795Z,1026.22
2022-11-12T09:52:22.811Z,1026.22
2022-11-12T09:53:22.810Z,1026.25
2022-11-12T09:54:22.804Z,1026.26
2022-11-12T09:55:24.453Z,1026.29
2022-11-12T09:56:22.796Z,1026.35
2022-11-12T09:57:22.802Z,1026.38
2022-11-12T09:58:22.936Z,1026.39
2022-11-12T09:59:22.806Z,1026.42
2022-11-12T10:00:24.426Z,1026.48
2022-11-12T10:01:22.808Z,1026.48
2022-11-12T10:02:22.796Z,1026.45
2022-11-12T10:13:39.682Z,1026.36
2022-11-12T10:14:39.541Z,1026.38
2022-11-12T10:15:39.554Z,1026.37
2022-11-12T10:16:39.555Z,1026.36
2022-11-12T10:17:39.543Z,1026.40
2022-11-12T10:18:39.544Z,1026.37
2022-11-12T10:19:39.571Z,1026.39
2022-11-12T10:20:39.566Z,1026.40
2022-11-12T10:21:37.937Z,1026.37
2022-11-12T10:22:39.562Z,1026.39
2022-11-12T10:23:37.932Z,1026.35
2022-11-12T10:24:37.937Z,1026.34
2022-11-12T10:25:39.565Z,1026.32
2022-11-12T10:26:37.931Z,1026.34
2022-11-12T10:27:37.959Z,1026.31
2022-11-12T10:28:39.140Z,1026.27
2022-11-12T10:29:39.696Z,1026.31
2022-11-12T10:30:37.944Z,1026.31
2022-11-12T10:31:37.960Z,1026.30
2022-11-12T10:32:39.564Z,1026.29
2022-11-12T10:33:39.581Z,1026.29
2022-11-12T10:34:39.566Z,1026.29
2022-11-12T10:35:39.574Z,1026.31
2022-11-12T10:36:39.563Z,1026.30
2022-11-12T10:37:39.565Z,1026.32
2022-11-12T10:38:39.568Z,1026.33
2022-11-12T10:39:39.635Z,1026.31
2022-11-12T10:40:39.584Z,1026.29
2022-11-12T10:41:39.583Z,1026.25
2022-11-12T10:42:39.625Z,1026.24
2022-11-12T10:43:39.589Z,1026.19
2022-11-12T10:44:39.569Z,1026.17
2022-11-12T10:45:39.673Z,1026.17
2022-11-12T10:46:39.579Z,1026.14
2022-11-12T10:47:39.579Z,1026.13
2022-11-12T10:48:37.927Z,1026.13
2022-11-12T10:49:39.586Z,1026.12
2022-11-12T10:50:37.930Z,1026.10
2022-11-12T10:51:37.924Z,1026.11
2022-11-12T10:52:39.594Z,1026.13
2022-11-12T10:53:37.918Z,1026.15
2022-11-12T10:54:37.928Z,1026.13
2022-11-12T10:55:37.930Z,1026.17
2022-11-12T10:56:37.907Z,1026.14
2022-11-12T10:57:39.612Z,1026.09
2022-11-12T10:58:37.932Z,1026.08
2022-11-12T10:59:37.912Z,1026.11
2022-11-12T11:00:37.913Z,1026.11
2022-11-12T11:01:45.343Z,1026.07
2022-11-12T11:02:37.935Z,1026.07
2022-11-12T11:03:39.600Z,1026.11
2022-11-12T11:04:39.592Z,1026.04
2022-11-12T11:05:39.604Z,1026.07
2022-11-12T11:06:39.707Z,1026.02
2022-11-12T11:07:39.592Z,1026.02
2022-11-12T11:08:39.939Z,1026.00
2022-11-12T11:09:39.593Z,1025.99
2022-11-12T11:10:39.621Z,1026.03
2022-11-12T11:11:39.594Z,1026.06
2022-11-12T11:12:39.611Z,1026.04
2022-11-12T11:13:39.610Z,1026.02
2022-11-12T11:14:39.618Z,1026.00
2022-11-12T11:15:37.899Z,1025.96
2022-11-12T11:16:39.613Z,1025.96
2022-11-12T11:17:39.739Z,1025.94
2022-11-12T11:18:39.603Z,1025.95
2022-11-12T11:19:39.645Z,1025.92
2022-11-12T11:20:39.611Z,1025.90
2022-11-12T11:21:42.855Z,1025.87
2022-11-12T11:22:39.600Z,1025.86
2022-11-12T11:23:39.606Z,1025.82
2022-11-12T11:24:39.606Z,1025.79
2022-11-12T11:25:37.904Z,1025.78
2022-11-12T11:26:39.634Z,1025.74
2022-11-12T11:27:39.609Z,1025.71
2022-11-12T11:28:37.909Z,1025.71
2022-11-12T11:29:39.615Z,1025.70
2022-11-12T11:30:37.897Z,1025.71
2022-11-12T11:31:39.636Z,1025.72
2022-11-12T11:32:37.997Z,1025.76
2022-11-12T11:33:38.011Z,1025.77
2022-11-12T11:34:39.711Z,1025.82
2022-11-12T11:35:37.897Z,1025.81
2022-11-12T11:36:37.905Z,1025.85
2022-11-12T11:37:37.893Z,1025.84
2022-11-12T11:38:37.903Z,1025.83
2022-11-12T11:39:39.667Z,1025.81
2022-11-12T11:40:38.214Z,1025.76
2022-11-12T11:41:39.662Z,1025.75
2022-11-12T11:42:37.905Z,1025.73
2022-11-12T11:43:39.688Z,1025.72
2022-11-12T11:44:39.645Z,1025.74
2022-11-12T11:45:37.895Z,1025.73
2022-11-12T11:46:39.677Z,1025.74
2022-11-12T11:47:57.657Z,1025.75
2022-11-12T11:48:39.748Z,1025.76
2022-11-12T11:49:39.651Z,1025.75
2022-11-12T11:50:39.659Z,1025.75
2022-11-12T11:51:39.646Z,1025.78
2022-11-12T11:52:39.633Z,1025.77
2022-11-12T11:53:39.651Z,1025.75
2022-11-12T11:54:39.636Z,1025.79
2022-11-12T11:55:40.148Z,1025.75
2022-11-12T11:56:40.304Z,1025.74
2022-11-12T11:57:37.922Z,1025.69
2022-11-12T11:58:38.979Z,1025.70
2022-11-12T11:59:38.198Z,1025.69
2022-11-12T12:00:39.672Z,1025.68
2022-11-12T12:01:37.902Z,1025.64
2022-11-12T12:02:37.895Z,1025.67
2022-11-12T12:03:39.726Z,1025.69
2022-11-12T12:04:37.998Z,1025.66
2022-11-12T12:05:37.926Z,1025.63
2022-11-12T12:06:39.715Z,1025.61
2022-11-12T12:07:39.654Z,1025.60
2022-11-12T12:08:39.706Z,1025.55
2022-11-12T12:09:39.651Z,1025.56
2022-11-12T12:11:01.670Z,1025.52
2022-11-12T12:11:39.684Z,1025.54
2022-11-12T12:12:39.723Z,1025.52
2022-11-12T12:13:39.669Z,1025.52
2022-11-12T12:14:39.676Z,1025.52
2022-11-12T12:15:39.670Z,1025.55
2022-11-12T12:16:39.659Z,1025.57
2022-11-12T12:17:39.669Z,1025.59
2022-11-12T12:18:39.682Z,1025.61
2022-11-12T12:19:39.740Z,1025.58
2022-11-12T12:20:39.773Z,1025.61
2022-11-12T12:21:39.678Z,1025.61
2022-11-12T12:22:37.888Z,1025.58
2022-11-12T12:23:37.895Z,1025.63
2022-11-12T12:24:39.193Z,1025.58
2022-11-12T12:25:37.923Z,1025.61
2022-11-12T12:26:37.912Z,1025.55
2022-11-12T12:27:37.891Z,1025.58
2022-11-12T12:28:37.885Z,1025.59
2022-11-12T12:29:37.900Z,1025.58
2022-11-12T12:30:39.189Z,1025.57
2022-11-12T12:31:38.927Z,1025.63
2022-11-12T12:32:37.938Z,1025.58
2022-11-12T12:33:37.892Z,1025.56
2022-11-12T12:34:39.727Z,1025.61
2022-11-12T12:35:37.911Z,1025.52
2022-11-12T12:36:38.007Z,1025.50
2022-11-12T12:37:37.895Z,1025.46
2022-11-12T12:38:39.706Z,1025.45
2022-11-12T12:39:42.401Z,1025.39
2022-11-12T12:40:39.204Z,1025.42
2022-11-12T12:41:39.696Z,1025.41
2022-11-12T12:42:39.703Z,1025.40
2022-11-12T12:43:39.694Z,1025.49
2022-11-12T12:44:37.928Z,1025.47
2022-11-12T12:45:40.743Z,1025.47
2022-11-12T12:46:39.246Z,1025.50
2022-11-12T12:47:39.694Z,1025.48
2022-11-12T12:48:39.711Z,1025.47
2022-11-12T12:49:38.912Z,1025.46
2022-11-12T12:50:39.710Z,1025.46
2022-11-12T12:51:37.991Z,1025.44
2022-11-12T12:52:38.023Z,1025.42
2022-11-12T12:53:38.981Z,1025.41
2022-11-12T12:54:39.208Z,1025.38
2022-11-12T12:55:37.925Z,1025.39
2022-11-12T12:56:40.241Z,1025.40
2022-11-12T12:57:37.917Z,1025.36
2022-11-12T12:58:37.924Z,1025.37
2022-11-12T12:59:37.941Z,1025.34
2022-11-12T13:00:39.397Z,1025.38
2022-11-12T13:01:37.935Z,1025.39
2022-11-12T13:02:37.930Z,1025.42
2022-11-12T13:03:37.966Z,1025.34
2022-11-12T13:04:37.934Z,1025.35
2022-11-12T13:05:39.240Z,1025.29
2022-11-12T13:06:38.759Z,1025.28
2022-11-12T13:07:37.982Z,1025.28
2022-11-12T13:08:38.034Z,1025.25
2022-11-12T13:09:38.931Z,1025.20
2022-11-12T13:10:39.247Z,1025.22
2022-11-12T13:11:38.939Z,1025.19
2022-11-12T13:12:38.931Z,1025.17
2022-11-12T13:13:38.940Z,1025.20
2022-11-12T13:14:38.945Z,1025.19
2022-11-12T13:15:40.272Z,1025.20
2022-11-12T13:16:40.253Z,1025.19
2022-11-12T13:17:37.940Z,1025.17
2022-11-12T13:18:39.736Z,1025.15
2022-11-12T13:19:37.957Z,1025.17
2022-11-12T13:20:39.763Z,1025.11
2022-11-12T13:21:39.296Z,1025.07
2022-11-12T13:22:39.723Z,1025.05
2022-11-12T13:23:39.739Z,1025.05
2022-11-12T13:24:39.843Z,1025.07
2022-11-12T13:25:39.784Z,1025.09
2022-11-12T13:26:39.738Z,1025.07
2022-11-12T13:27:37.932Z,1025.08
2022-11-12T13:28:37.943Z,1025.09
2022-11-12T13:29:37.967Z,1025.09
2022-11-12T13:30:40.687Z,1025.05
2022-11-12T13:31:37.948Z,1025.08
2022-11-12T13:32:37.965Z,1025.10
2022-11-12T13:33:38.938Z,1025.13
2022-11-12T13:34:37.947Z,1025.12
2022-11-12T13:35:37.938Z,1025.09
2022-11-12T13:36:40.264Z,1025.10
2022-11-12T13:37:37.924Z,1025.09
2022-11-12T13:38:37.934Z,1025.09
2022-11-12T13:39:39.758Z,1025.07
2022-11-12T13:40:39.868Z,1025.08
2022-11-12T13:41:39.769Z,1025.09
2022-11-12T13:42:39.742Z,1025.06
2022-11-12T13:43:39.756Z,1025.04
2022-11-12T13:44:39.773Z,1025.05
2022-11-12T13:45:39.757Z,1025.03
2022-11-12T13:46:39.818Z,1025.01
2022-11-12T13:47:39.748Z,1025.04
2022-11-12T13:48:39.755Z,1025.04
2022-11-12T13:49:39.759Z,1025.02
2022-11-12T13:50:40.753Z,1025.04
2022-11-12T13:51:39.768Z,1025.04
2022-11-12T13:52:39.765Z,1025.01
2022-11-12T13:53:39.759Z,1025.00
2022-11-12T13:54:37.920Z,1025.04
2022-11-12T13:55:37.955Z,1025.01
2022-11-12T13:56:39.388Z,1025.08
2022-11-12T13:57:39.771Z,1025.05
2022-11-12T13:58:37.958Z,1025.06
2022-11-12T13:59:37.973Z,1025.10
2022-11-12T14:00:37.940Z,1025.09
2022-11-12T14:01:37.911Z,1025.05
2022-11-12T14:02:41.647Z,1025.09
2022-11-12T14:03:37.900Z,1025.05
2022-11-12T14:04:39.279Z,1025.06
2022-11-12T14:05:37.908Z,1025.09
2022-11-12T14:06:38.022Z,1025.10
2022-11-12T14:07:39.308Z,1025.11
2022-11-12T14:08:37.907Z,1025.09
2022-11-12T14:09:37.903Z,1025.07
2022-11-12T14:10:41.006Z,1025.10
2022-11-12T14:11:39.294Z,1025.09
2022-11-12T14:12:39.879Z,1025.07
2022-11-12T14:13:39.797Z,1025.06
2022-11-12T14:14:39.784Z,1025.07
2022-11-12T14:15:39.781Z,1025.08
2022-11-12T14:16:39.794Z,1025.06
2022-11-12T14:17:39.799Z,1025.06
2022-11-12T14:18:39.775Z,1025.07
2022-11-12T14:19:39.785Z,1025.10
2022-11-12T14:20:37.903Z,1025.07
2022-11-12T14:21:39.796Z,1025.07
2022-11-12T14:22:39.782Z,1025.03
2022-11-12T14:23:39.815Z,1025.03
2022-11-12T14:24:39.807Z,1025.06
2022-11-12T14:25:38.928Z,1025.02
2022-11-12T14:26:37.898Z,1025.04
2022-11-12T14:27:37.889Z,1024.99
2022-11-12T14:28:37.983Z,1024.97
2022-11-12T14:29:43.533Z,1024.99
2022-11-12T14:30:37.882Z,1025.01
2022-11-12T14:31:39.312Z,1025.03
2022-11-12T14:32:37.878Z,1025.04
2022-11-12T14:33:37.896Z,1025.07
2022-11-12T14:34:39.813Z,1025.02
2022-11-12T14:35:37.883Z,1025.06
2022-11-12T14:36:39.308Z,1025.00
2022-11-12T14:37:42.848Z,1025.00
2022-11-12T14:38:39.824Z,1024.97
2022-11-12T14:39:37.864Z,1024.97
2022-11-12T14:40:37.873Z,1024.93
2022-11-12T14:41:37.865Z,1024.94
2022-11-12T14:42:39.824Z,1024.91
2022-11-12T14:43:39.467Z,1024.93
2022-11-12T14:44:37.858Z,1024.93
2022-11-12T14:45:39.806Z,1024.91
2022-11-12T14:46:38.851Z,1024.94
2022-11-12T14:47:39.817Z,1024.96
2022-11-12T14:48:38.857Z,1024.96
2022-11-12T14:49:43.854Z,1024.97
2022-11-12T14:50:41.618Z,1024.96
2022-11-12T14:51:39.810Z,1024.95
2022-11-12T14:52:38.888Z,1024.93
2022-11-12T14:53:39.864Z,1024.92
2022-11-12T14:54:38.875Z,1024.90
2022-11-12T14:55:39.846Z,1024.93
2022-11-12T14:56:38.842Z,1024.90
2022-11-12T14:57:39.837Z,1024.91
2022-11-12T14:58:39.815Z,1024.92
2022-11-12T14:59:39.929Z,1024.91
2022-11-12T15:00:39.871Z,1024.91
2022-11-12T15:02:53.954Z,1024.93
2022-11-12T15:03:39.357Z,1024.92
2022-11-12T15:04:39.361Z,1024.91
2022-11-12T15:05:39.342Z,1024.92
2022-11-12T15:06:38.904Z,1024.92
2022-11-12T15:07:37.820Z,1024.92
2022-11-12T15:08:39.840Z,1024.90
2022-11-12T15:09:37.817Z,1024.95
2022-11-12T15:10:38.828Z,1024.94
2022-11-12T15:11:38.856Z,1024.93
2022-11-12T15:12:37.807Z,1024.95
2022-11-12T15:13:38.809Z,1024.94
2022-11-12T15:14:37.803Z,1024.95
2022-11-12T15:15:39.468Z,1024.94
2022-11-12T15:16:39.329Z,1024.93
2022-11-12T15:17:39.348Z,1024.88
2022-11-12T15:18:39.351Z,1024.89
2022-11-12T15:19:39.333Z,1024.88
2022-11-12T15:20:37.856Z,1024.84
2022-11-12T15:21:39.347Z,1024.84
2022-11-12T15:22:39.362Z,1024.85
2022-11-12T15:23:38.788Z,1024.85
2022-11-12T15:24:39.394Z,1024.88
2022-11-12T15:25:37.779Z,1024.87
2022-11-12T15:26:39.354Z,1024.87
2022-11-12T15:27:39.372Z,1024.90
2022-11-12T15:28:39.366Z,1024.88
2022-11-12T15:29:39.356Z,1024.87
2022-11-12T15:30:39.350Z,1024.87
2022-11-12T15:31:39.468Z,1024.83
2022-11-12T15:32:39.355Z,1024.80
2022-11-12T15:33:39.487Z,1024.80
2022-11-12T15:34:39.389Z,1024.83
2022-11-12T15:35:39.360Z,1024.84
2022-11-12T15:36:39.361Z,1024.86
2022-11-12T15:37:39.351Z,1024.84
2022-11-12T15:38:39.424Z,1024.87
2022-11-12T15:39:37.745Z,1024.83
2022-11-12T15:40:37.745Z,1024.86
2022-11-12T15:41:39.882Z,1024.88
2022-11-12T15:42:39.370Z,1024.90
2022-11-12T15:43:37.753Z,1024.94
2022-11-12T15:44:37.741Z,1024.91
2022-11-12T15:45:37.760Z,1024.90
2022-11-12T15:46:39.390Z,1024.92
2022-11-12T15:47:39.465Z,1024.91
2022-11-12T15:48:39.374Z,1024.91
2022-11-12T15:49:39.362Z,1024.87
2022-11-12T15:50:39.365Z,1024.88
2022-11-12T15:51:39.372Z,1024.88
2022-11-12T15:52:39.395Z,1024.86
2022-11-12T15:53:39.389Z,1024.87
2022-11-12T15:54:41.212Z,1024.86
2022-11-12T15:55:39.466Z,1024.84
2022-11-12T15:56:39.382Z,1024.85
2022-11-12T15:57:39.387Z,1024.84
2022-11-12T15:58:39.369Z,1024.81
2022-11-12T15:59:39.421Z,1024.81
2022-11-12T16:00:39.470Z,1024.83
2022-11-12T16:12:50.244Z,1024.67
2022-11-12T16:13:49.934Z,1024.69
2022-11-12T16:14:49.948Z,1024.73
2022-11-12T16:15:50.045Z,1024.75
2022-11-12T16:16:48.942Z,1024.75
2022-11-12T16:17:50.667Z,1024.79
2022-11-12T16:18:49.943Z,1024.81
2022-11-12T16:19:49.933Z,1024.79
2022-11-12T16:20:48.911Z,1024.79
2022-11-12T16:21:48.915Z,1024.83
2022-11-12T16:22:50.574Z,1024.81
2022-11-12T16:23:50.558Z,1024.79
2022-11-12T16:24:50.582Z,1024.78
2022-11-12T16:25:50.544Z,1024.77
2022-11-12T16:26:50.599Z,1024.75